Time;durP1;ratioP1;P1;durP2;ratioP2;P2;SDS_P1;SDS_P2;PMS_P1;PMS_P2;Temp;Humidity;BMP_temperature;BMP_pressure;BME280_temperature;BME280_humidity;BME280_pressure;Samples;Min_cycle;Max_cycle;Signal;HPM_P1;HPM_P2
2023/03/19 00:04:05;;;;;;;68.80;33.90;;;;;;;4.03;88.18;100484.46;214328;1289;138702;-92
2023/03/19 00:09:05;;;;;;;67.20;33.50;;;;;;;4.01;88.38;100484.64;213851;1288;138930;-92
2023/03/19 00:14:06;;;;;;;69.60;33.00;;;;;;;3.99;88.15;100482.45;214182;1289;138878;-92
2023/03/19 00:19:07;;;;;;;60.30;33.00;;;;;;;3.98;88.21;100487.46;213695;1288;139967;-92
2023/03/19 00:24:08;;;;;;;71.80;34.50;;;;;;;3.94;88.49;100492.60;214611;1289;138607;-93
2023/03/19 00:29:10;;;;;;;63.70;32.20;;;;;;;3.93;88.52;100488.83;213482;1294;140762;-92
2023/03/19 00:34:12;;;;;;;66.50;33.40;;;;;;;3.93;88.29;100491.08;213933;1291;138690;-92
2023/03/19 00:39:12;;;;;;;66.30;32.10;;;;;;;3.92;88.98;100489.04;213500;1289;139335;-92
2023/03/19 00:44:12;;;;;;;69.90;35.00;;;;;;;3.92;88.73;100490.19;214222;1289;138461;-93
2023/03/19 00:49:13;;;;;;;75.20;36.70;;;;;;;3.93;88.53;100483.86;213437;1293;139616;-92
2023/03/19 00:54:13;;;;;;;68.60;33.50;;;;;;;3.96;88.42;100483.33;213967;1291;138757;-92
2023/03/19 00:59:14;;;;;;;73.60;36.60;;;;;;;3.98;89.27;100482.27;213241;1294;138623;-93
2023/03/19 01:04:14;;;;;;;77.60;38.10;;;;;;;4.01;89.11;100480.95;213929;1292;139400;-91
2023/03/19 01:09:15;;;;;;;67.30;34.50;;;;;;;4.05;89.09;100478.34;213510;1289;139589;-92
2023/03/19 01:14:16;;;;;;;72.60;37.00;;;;;;;4.11;89.20;100480.72;213935;1291;138634;-91
2023/03/19 01:19:16;;;;;;;69.50;35.90;;;;;;;4.16;88.97;100481.54;213557;1294;139088;-90
2023/03/19 01:24:17;;;;;;;71.00;34.80;;;;;;;4.25;89.11;100476.57;213884;1294;138520;-90
2023/03/19 01:29:17;;;;;;;83.50;40.60;;;;;;;4.32;88.75;100472.48;213271;1289;139242;-91
2023/03/19 01:34:18;;;;;;;79.70;38.80;;;;;;;4.42;88.47;100475.10;213837;1289;139106;-91
2023/03/19 01:39:18;;;;;;;70.30;35.40;;;;;;;4.49;88.63;100473.05;213406;1289;139414;-90
2023/03/19 01:44:22;;;;;;;70.10;37.00;;;;;;;4.55;88.28;100466.22;214010;1289;138701;-90
2023/03/19 01:49:26;;;;;;;64.70;33.80;;;;;;;4.59;88.51;100468.32;213530;1288;138603;-91
2023/03/19 01:54:28;;;;;;;63.50;32.40;;;;;;;4.61;88.89;100467.77;213821;1291;139434;-92
2023/03/19 01:59:35;;;;;;;77.20;34.80;;;;;;;4.61;88.23;100471.67;213334;1288;139236;-91
2023/03/19 02:04:38;;;;;;;64.90;32.90;;;;;;;4.60;88.23;100471.23;213737;1289;138759;-91
2023/03/19 02:09:39;;;;;;;66.30;33.40;;;;;;;4.57;88.03;100462.58;213242;1288;139159;-91
2023/03/19 02:14:40;;;;;;;51.60;26.90;;;;;;;4.56;88.07;100460.50;213633;1289;138849;-91
2023/03/19 02:19:53;;;;;;;71.70;33.20;;;;;;;4.54;87.73;100464.48;213246;1288;139058;-91
2023/03/19 02:25:15;;;;;;;65.10;33.20;;;;;;;4.51;87.94;100463.59;213836;1289;105076;-92
2023/03/19 02:30:29;;;;;;;65.20;30.90;;;;;;;4.48;88.70;100463.16;213331;1289;138927;-90
2023/03/19 02:35:33;;;;;;;59.60;32.00;;;;;;;4.40;88.99;100467.94;213742;1291;138502;-91
2023/03/19 02:40:40;;;;;;;72.70;37.00;;;;;;;4.35;88.77;100472.54;213203;1289;139015;-90
2023/03/19 02:45:40;;;;;;;60.70;30.70;;;;;;;4.35;88.36;100473.30;213842;1288;138684;-91
2023/03/19 02:50:41;;;;;;;75.20;36.40;;;;;;;4.35;88.40;100467.15;213203;1293;139046;-91
2023/03/19 02:55:42;;;;;;;71.80;34.10;;;;;;;4.34;88.33;100477.13;214528;1289;139246;-92
2023/03/19 03:00:44;;;;;;;100.30;45.70;;;;;;;4.31;88.33;100484.13;213385;1289;139136;-91
2023/03/19 03:05:44;;;;;;;68.00;33.60;;;;;;;4.29;88.31;100491.74;213748;1288;138864;-91
2023/03/19 03:10:45;;;;;;;91.50;40.90;;;;;;;4.26;88.72;100498.09;213202;1288;139336;-91
2023/03/19 03:15:45;;;;;;;108.30;47.10;;;;;;;4.21;88.60;100496.19;213715;1293;138946;-91
2023/03/19 03:20:46;;;;;;;66.80;33.90;;;;;;;4.17;88.89;100501.89;213088;1294;138939;-91
2023/03/19 03:25:51;;;;;;;62.40;31.00;;;;;;;4.14;88.92;100503.38;214026;1293;139009;-91
2023/03/19 03:30:58;;;;;;;64.30;31.80;;;;;;;4.09;89.35;100507.00;213646;1289;138601;-91
2023/03/19 03:35:58;;;;;;;64.50;31.70;;;;;;;4.04;89.36;100516.80;213265;1293;139297;-87
2023/03/19 03:40:59;;;;;;;65.70;33.60;;;;;;;4.02;89.90;100518.82;213708;1291;139021;-91
2023/03/19 03:45:59;;;;;;;68.80;34.50;;;;;;;3.98;90.23;100522.30;213189;1291;139069;-91
2023/03/19 03:51:02;;;;;;;70.50;34.70;;;;;;;3.93;90.81;100520.39;213770;1292;138715;-91
2023/03/19 03:56:02;;;;;;;74.70;36.30;;;;;;;3.88;90.57;100513.63;213346;1294;139970;-91
2023/03/19 04:01:03;;;;;;;64.70;32.50;;;;;;;3.86;90.74;100514.86;213833;1294;99145;-92
2023/03/19 04:06:04;;;;;;;68.70;32.10;;;;;;;3.84;90.85;100516.95;213211;1289;139099;-91
2023/03/19 04:11:07;;;;;;;60.20;31.50;;;;;;;3.79;91.28;100509.28;214519;1289;272612;-91
2023/03/19 04:16:09;;;;;;;56.20;28.40;;;;;;;3.75;90.56;100503.85;213307;1292;139301;-91
2023/03/19 04:21:10;;;;;;;55.40;29.90;;;;;;;3.72;91.12;100497.34;214032;1292;138597;-92
2023/03/19 04:26:11;;;;;;;58.20;32.60;;;;;;;3.69;91.15;100510.67;213322;1289;139947;-91
2023/03/19 04:31:11;;;;;;;57.20;29.30;;;;;;;3.62;91.54;100507.77;213867;1294;98849;-91
2023/03/19 04:36:12;;;;;;;57.90;31.80;;;;;;;3.58;91.71;100507.22;213265;1293;139177;-91
2023/03/19 04:41:15;;;;;;;60.30;30.60;;;;;;;3.53;91.93;100515.92;213759;1289;138499;-91
2023/03/19 04:46:15;;;;;;;62.80;30.20;;;;;;;3.45;92.51;100510.27;213065;1293;139582;-91
2023/03/19 04:51:17;;;;;;;61.60;30.60;;;;;;;3.40;92.20;100509.13;213811;1293;139464;-92
2023/03/19 04:56:17;;;;;;;58.30;31.60;;;;;;;3.41;92.13;100502.38;213132;1292;139299;-91
2023/03/19 05:01:18;;;;;;;59.20;30.20;;;;;;;3.38;92.03;100501.34;213732;1294;97955;-92
2023/03/19 05:06:18;;;;;;;62.20;32.50;;;;;;;3.36;92.16;100499.70;213486;1288;139361;-92
2023/03/19 05:11:20;;;;;;;64.30;32.70;;;;;;;3.37;92.13;100500.05;214045;1294;138532;-92
2023/03/19 05:16:21;;;;;;;63.00;31.80;;;;;;;3.37;92.03;100505.27;213215;1289;139180;-91
2023/03/19 05:21:22;;;;;;;59.20;29.80;;;;;;;3.38;92.20;100509.43;214285;1288;139388;-93
2023/03/19 05:26:22;;;;;;;62.50;31.30;;;;;;;3.38;92.19;100504.08;214560;1289;138791;-91
2023/03/19 05:31:23;;;;;;;73.20;34.70;;;;;;;3.40;92.19;100502.13;214202;1289;97901;-93
2023/03/19 05:36:23;;;;;;;70.30;36.90;;;;;;;3.42;92.22;100500.18;213447;1290;139132;-92
2023/03/19 05:41:24;;;;;;;66.80;35.60;;;;;;;3.45;92.17;100506.36;213850;1288;139635;-92
2023/03/19 05:46:24;;;;;;;57.70;29.60;;;;;;;3.47;92.35;100515.23;213392;1293;139184;-90
2023/03/19 05:51:25;;;;;;;65.90;32.30;;;;;;;3.51;92.70;100514.40;214276;1289;139798;-91
2023/03/19 05:56:26;;;;;;;106.90;48.90;;;;;;;3.55;92.92;100525.19;213626;1294;140009;-92
2023/03/19 06:01:26;;;;;;;102.50;46.70;;;;;;;3.59;92.89;100534.70;214263;1289;97945;-91
2023/03/19 06:06:27;;;;;;;99.70;42.60;;;;;;;3.66;92.94;100538.70;213351;1289;138895;-91
2023/03/19 06:11:27;;;;;;;98.50;47.40;;;;;;;3.72;92.78;100545.41;214590;1293;138487;-92
2023/03/19 06:16:28;;;;;;;106.30;48.60;;;;;;;3.80;93.10;100555.83;214061;1295;139107;-91
2023/03/19 06:21:29;;;;;;;93.30;42.50;;;;;;;3.90;93.06;100559.20;214548;1291;139181;-91
2023/03/19 06:26:30;;;;;;;83.30;40.80;;;;;;;4.02;93.56;100555.02;213342;1294;138815;-91
2023/03/19 06:31:30;;;;;;;75.50;37.40;;;;;;;4.16;93.26;100562.17;214090;1293;97963;-91
2023/03/19 06:36:31;;;;;;;72.70;37.80;;;;;;;4.34;93.12;100564.39;213218;1289;138693;-92
2023/03/19 06:41:31;;;;;;;65.20;34.70;;;;;;;4.54;93.22;100562.36;214249;1294;138871;-91
2023/03/19 06:46:31;;;;;;;64.80;34.70;;;;;;;4.74;92.81;100564.52;213859;1289;139467;-91
2023/03/19 06:51:32;;;;;;;70.30;36.20;;;;;;;4.92;92.22;100561.01;214064;1293;139423;-91
2023/03/19 06:56:32;;;;;;;76.90;37.30;;;;;;;5.06;91.98;100562.76;213501;1293;139384;-91
2023/03/19 07:01:33;;;;;;;68.40;36.60;;;;;;;5.21;91.89;100566.02;214058;1294;139361;-90
2023/03/19 07:06:34;;;;;;;65.60;34.00;;;;;;;5.36;91.56;100578.09;213653;1289;139293;-92
2023/03/19 07:11:34;;;;;;;69.00;34.90;;;;;;;5.53;91.27;100581.77;214033;1293;153614;-92
2023/03/19 07:16:35;;;;;;;60.10;31.00;;;;;;;5.71;90.90;100584.25;213408;1295;140443;-91
2023/03/19 07:21:35;;;;;;;70.30;34.20;;;;;;;5.89;90.41;100583.63;214193;1289;139067;-90
2023/03/19 07:26:36;;;;;;;62.00;33.20;;;;;;;6.08;90.27;100587.89;213493;1294;138854;-91
2023/03/19 07:31:36;;;;;;;59.80;31.80;;;;;;;6.28;89.91;100586.25;214096;1293;139115;-91
2023/03/19 07:36:36;;;;;;;55.20;30.50;;;;;;;6.47;89.06;100585.04;213679;1295;139500;-91
2023/03/19 07:41:37;;;;;;;49.40;27.80;;;;;;;6.68;87.79;100588.92;213649;1289;139218;-91
2023/03/19 07:46:37;;;;;;;57.00;29.50;;;;;;;6.88;86.86;100588.29;213495;1298;138827;-90
2023/03/19 07:51:38;;;;;;;55.10;28.10;;;;;;;7.11;86.91;100584.62;213908;1289;138967;-89
2023/03/19 07:56:38;;;;;;;53.20;27.30;;;;;;;7.32;86.10;100585.90;213774;1292;139164;-90
2023/03/19 08:01:39;;;;;;;54.20;29.00;;;;;;;7.53;85.74;100578.85;214581;1289;139462;-90
2023/03/19 08:06:40;;;;;;;51.40;28.60;;;;;;;7.75;85.46;100566.09;213639;1294;138734;-91
2023/03/19 08:11:40;;;;;;;53.00;28.20;;;;;;;7.97;84.55;100563.48;213978;1294;139389;-91
2023/03/19 08:16:42;;;;;;;56.90;29.20;;;;;;;8.18;83.35;100559.85;213344;1289;139422;-91
2023/03/19 08:21:42;;;;;;;53.30;29.00;;;;;;;8.38;82.13;100558.28;214182;1291;139068;-91
2023/03/19 08:26:42;;;;;;;50.10;27.80;;;;;;;8.59;82.10;100563.91;213544;1289;138853;-90
2023/03/19 08:31:43;;;;;;;48.40;26.10;;;;;;;8.82;81.07;100565.47;214243;1290;138725;-91
2023/03/19 08:36:43;;;;;;;46.60;26.20;;;;;;;9.02;80.28;100568.30;213689;1292;139148;-90
2023/03/19 08:41:44;;;;;;;50.50;26.30;;;;;;;9.24;79.94;100568.24;214128;1290;141213;-90
2023/03/19 08:46:44;;;;;;;43.90;26.10;;;;;;;9.55;79.96;100568.11;213721;1289;139090;-89
2023/03/19 08:51:44;;;;;;;45.90;24.40;;;;;;;9.85;78.54;100577.97;214111;1295;139216;-90
2023/03/19 08:56:45;;;;;;;50.30;27.10;;;;;;;10.12;78.12;100584.39;213456;1294;139417;-89
2023/03/19 09:01:50;;;;;;;51.40;26.50;;;;;;;10.45;77.77;100581.50;213903;1293;139490;-91
2023/03/19 09:06:51;;;;;;;47.70;26.20;;;;;;;10.86;77.69;100580.94;213638;1294;140323;-89
2023/03/19 09:11:51;;;;;;;44.80;23.30;;;;;;;11.23;74.63;100576.72;213957;1291;139364;-88
2023/03/19 09:16:52;;;;;;;36.00;21.80;;;;;;;11.58;73.09;100575.59;213451;1291;139761;-89
2023/03/19 09:21:53;;;;;;;38.10;20.80;;;;;;;11.93;71.47;100570.79;214000;1289;139437;-88
2023/03/19 09:26:53;;;;;;;38.30;21.00;;;;;;;12.25;70.95;100575.45;213497;1293;140029;-90
2023/03/19 09:31:54;;;;;;;39.20;22.40;;;;;;;12.49;68.64;100576.93;214259;1288;138647;-88
2023/03/19 09:36:55;;;;;;;40.00;21.80;;;;;;;12.63;66.77;100575.52;213859;1288;139523;-89
2023/03/19 09:42:14;;;;;;;38.70;21.50;;;;;;;12.72;65.93;100575.55;214394;1288;138898;-89
2023/03/19 09:47:38;;;;;;;37.60;21.80;;;;;;;12.88;65.23;100582.64;214151;1288;139159;-91
2023/03/19 09:52:45;;;;;;;37.30;20.50;;;;;;;13.09;64.29;100579.13;214381;1294;138330;-90
2023/03/19 09:57:47;;;;;;;41.80;21.90;;;;;;;13.28;63.64;100581.39;213656;1295;139271;-91
2023/03/19 10:02:53;;;;;;;37.60;21.30;;;;;;;13.40;61.76;100579.45;214309;1293;138567;-88
2023/03/19 10:08:16;;;;;;;38.20;20.20;;;;;;;13.50;61.96;100577.08;213462;1292;138864;-90
2023/03/19 10:13:44;;;;;;;35.10;20.60;;;;;;;13.71;61.81;100573.30;214203;1289;97926;-88
2023/03/19 10:18:50;;;;;;;33.10;18.70;;;;;;;13.95;60.86;100575.94;213725;1288;138280;-91
2023/03/19 10:24:11;;;;;;;28.40;16.40;;;;;;;14.12;60.53;100572.70;214113;1289;138665;-89
2023/03/19 10:29:18;;;;;;;31.20;16.70;;;;;;;14.52;61.34;100572.23;213419;1289;138949;-88
2023/03/19 10:34:31;;;;;;;30.60;15.40;;;;;;;14.95;59.60;100569.80;214166;1293;138338;-89
2023/03/19 10:39:34;;;;;;;29.00;16.00;;;;;;;15.14;57.70;100572.16;213818;1291;138386;-89
2023/03/19 10:44:42;;;;;;;29.10;16.20;;;;;;;15.24;56.35;100578.84;215268;1289;139392;-88
2023/03/19 10:49:42;;;;;;;32.60;17.50;;;;;;;15.27;55.53;100570.66;214893;1289;139406;-90
2023/03/19 10:54:44;;;;;;;27.80;16.40;;;;;;;15.20;55.57;100573.08;215394;1291;98343;-89
2023/03/19 10:59:46;;;;;;;31.10;17.50;;;;;;;15.32;55.49;100570.89;214712;1289;138850;-88
2023/03/19 11:04:47;;;;;;;32.30;16.90;;;;;;;15.41;55.43;100565.06;214881;1289;139392;-89
2023/03/19 11:09:50;;;;;;;31.00;16.90;;;;;;;15.46;54.49;100565.50;214139;1289;138337;-89
2023/03/19 11:15:06;;;;;;;28.70;16.60;;;;;;;15.44;54.04;100562.66;214155;1289;138361;-88
2023/03/19 11:20:10;;;;;;;30.20;17.40;;;;;;;15.49;54.74;100553.84;213477;1294;138777;-90
2023/03/19 11:25:22;;;;;;;29.30;17.10;;;;;;;15.54;53.03;100557.13;214260;1292;97941;-89
2023/03/19 11:30:23;;;;;;;29.40;16.60;;;;;;;15.42;52.44;100553.48;213555;1292;137996;-90
2023/03/19 11:35:33;;;;;;;29.70;16.40;;;;;;;15.43;53.98;100542.86;213981;1295;138391;-90
2023/03/19 11:40:52;;;;;;;32.50;18.30;;;;;;;15.58;54.01;100535.86;213519;1289;140192;-89
2023/03/19 11:46:28;;;;;;;28.90;17.50;;;;;;;15.69;54.24;100533.95;213906;1291;138340;-89
2023/03/19 11:51:40;;;;;;;29.90;17.10;;;;;;;15.83;56.13;100536.45;213690;1289;138604;-88
2023/03/19 11:56:45;;;;;;;27.40;15.80;;;;;;;15.97;57.91;100533.47;213426;1293;139624;-88
2023/03/19 12:01:52;;;;;;;29.40;15.60;;;;;;;16.12;58.02;100529.52;213905;1289;140060;-88
2023/03/19 12:07:18;;;;;;;34.00;17.00;;;;;;;16.23;55.57;100529.64;213581;1291;138643;-89
2023/03/19 12:12:28;;;;;;;27.80;15.90;;;;;;;16.23;54.83;100532.66;213949;1291;138658;-89
2023/03/19 12:18:04;;;;;;;27.70;15.50;;;;;;;16.24;54.47;100525.19;213500;1291;139061;-89
2023/03/19 12:23:21;;;;;;;28.70;15.90;;;;;;;16.28;56.21;100526.58;213807;1289;138189;-89
2023/03/19 12:28:27;;;;;;;35.30;17.60;;;;;;;16.26;55.47;100526.98;213371;1292;139549;-89
2023/03/19 12:33:53;;;;;;;32.70;17.80;;;;;;;16.37;54.24;100525.30;213944;1288;138495;-89
2023/03/19 12:39:12;;;;;;;32.50;17.70;;;;;;;16.41;53.01;100525.90;213445;1288;138871;-89
2023/03/19 12:44:20;;;;;;;29.40;17.40;;;;;;;16.34;53.31;100518.98;214000;1289;138431;-89
2023/03/19 12:49:37;;;;;;;32.90;19.70;;;;;;;16.40;53.32;100519.98;213470;1289;139823;-89
2023/03/19 12:54:44;;;;;;;30.10;19.40;;;;;;;16.33;52.55;100522.40;213913;1292;106798;-89
2023/03/19 12:59:56;;;;;;;32.10;19.40;;;;;;;16.33;53.06;100520.88;213572;1288;138258;-89
2023/03/19 13:05:06;;;;;;;38.90;21.60;;;;;;;16.40;53.27;100515.44;213831;1288;138993;-89
2023/03/19 13:10:18;;;;;;;35.10;20.90;;;;;;;16.45;53.58;100510.47;213400;1291;138628;-88
2023/03/19 13:15:29;;;;;;;33.40;20.50;;;;;;;16.51;53.43;100500.96;214026;1291;138397;-88
2023/03/19 13:20:53;;;;;;;34.80;21.80;;;;;;;16.54;52.93;100499.80;213349;1288;139010;-88
2023/03/19 13:25:57;;;;;;;35.30;21.40;;;;;;;16.58;55.25;100489.35;214313;1290;139470;-89
2023/03/19 13:30:59;;;;;;;38.30;23.00;;;;;;;16.75;55.17;100486.12;213952;1291;138151;-90
2023/03/19 13:36:06;;;;;;;40.50;20.60;;;;;;;16.74;52.98;100481.68;213812;1289;138634;-90
2023/03/19 13:41:38;;;;;;;41.70;21.90;;;;;;;16.67;53.13;100477.98;214474;1293;138910;-88
2023/03/19 13:46:43;;;;;;;35.50;20.90;;;;;;;16.63;52.65;100481.34;213796;1289;138913;-88
2023/03/19 13:51:46;;;;;;;36.30;22.70;;;;;;;16.57;53.47;100479.13;214201;1288;138529;-89
2023/03/19 13:57:00;;;;;;;32.60;18.60;;;;;;;16.57;52.85;100474.04;215292;1290;139081;-86
2023/03/19 14:02:23;;;;;;;31.30;17.60;;;;;;;16.56;52.90;100466.27;214079;1288;138876;-88
2023/03/19 14:07:28;;;;;;;32.00;19.30;;;;;;;16.61;54.39;100465.27;213799;1291;138529;-88
2023/03/19 14:12:31;;;;;;;31.10;19.30;;;;;;;16.62;52.79;100465.33;213971;1289;138972;-89
2023/03/19 14:17:54;;;;;;;31.80;19.30;;;;;;;16.57;53.13;100463.73;214205;1288;139643;-88
2023/03/19 14:23:07;;;;;;;30.00;18.90;;;;;;;16.56;53.36;100460.64;213828;1291;139079;-88
2023/03/19 14:28:09;;;;;;;31.10;18.20;;;;;;;16.49;53.16;100458.27;214129;1291;138687;-89
2023/03/19 14:33:25;;;;;;;29.90;17.70;;;;;;;16.52;53.08;100462.13;214251;1291;138587;-89
2023/03/19 14:38:37;;;;;;;30.60;17.20;;;;;;;16.51;52.64;100459.28;214145;1291;138374;-87
2023/03/19 14:43:56;;;;;;;26.70;15.60;;;;;;;16.52;52.31;100463.07;213229;1294;138448;-87
2023/03/19 14:49:34;;;;;;;29.60;17.20;;;;;;;16.47;51.47;100460.91;213463;1291;139165;-88
2023/03/19 14:54:48;;;;;;;26.30;15.60;;;;;;;16.45;52.42;100458.72;214108;1291;97896;-87
2023/03/19 14:59:49;;;;;;;26.80;15.30;;;;;;;16.42;52.19;100460.96;213680;1289;138436;-87
2023/03/19 15:04:50;;;;;;;33.40;17.90;;;;;;;16.37;53.00;100461.16;214257;1292;138280;-87
2023/03/19 15:09:54;;;;;;;29.80;16.70;;;;;;;16.35;52.00;100459.67;213692;1292;138918;-87
2023/03/19 15:15:08;;;;;;;30.30;17.80;;;;;;;16.28;52.52;100453.26;214501;1288;139355;-88
2023/03/19 15:20:17;;;;;;;31.20;18.20;;;;;;;16.24;52.42;100454.73;214163;1289;139209;-87
2023/03/19 15:25:18;;;;;;;30.50;16.70;;;;;;;16.19;52.46;100453.36;214611;1289;138784;-87
2023/03/19 15:30:23;;;;;;;29.40;16.20;;;;;;;16.15;52.84;100449.91;213774;1289;138344;-87
2023/03/19 15:35:28;;;;;;;28.50;15.90;;;;;;;16.11;53.29;100450.05;214060;1292;138795;-88
2023/03/19 15:40:30;;;;;;;30.00;16.50;;;;;;;16.01;53.94;100450.15;213586;1289;138325;-88
2023/03/19 15:45:33;;;;;;;31.70;18.40;;;;;;;15.99;54.63;100456.35;214199;1288;138845;-88
2023/03/19 15:50:38;;;;;;;34.30;17.50;;;;;;;15.97;54.02;100459.95;213725;1294;138302;-87
2023/03/19 15:55:39;;;;;;;40.30;18.70;;;;;;;15.89;53.76;100462.73;214197;1290;138460;-87
2023/03/19 16:00:40;;;;;;;32.90;18.70;;;;;;;15.83;53.37;100460.97;213711;1289;138611;-88
2023/03/19 16:05:41;;;;;;;34.30;19.00;;;;;;;15.72;53.88;100460.90;214329;1294;139192;-88
2023/03/19 16:10:44;;;;;;;31.10;17.30;;;;;;;15.63;54.10;100461.46;213426;1294;321126;-88
2023/03/19 16:15:47;;;;;;;35.00;18.30;;;;;;;15.54;54.64;100459.71;214191;1294;138640;-88
2023/03/19 16:20:59;;;;;;;30.40;16.50;;;;;;;15.41;54.30;100462.21;214679;1289;139597;-87
2023/03/19 16:26:36;;;;;;;29.60;16.50;;;;;;;15.31;53.69;100470.50;214657;1294;138546;-88
2023/03/19 16:31:50;;;;;;;25.30;14.00;;;;;;;15.19;53.92;100473.67;214495;1294;139760;-88
2023/03/19 16:36:51;;;;;;;28.10;13.70;;;;;;;15.09;54.95;100471.84;214742;1290;106496;-87
2023/03/19 16:42:10;;;;;;;26.00;14.80;;;;;;;14.98;56.28;100474.83;213651;1294;138901;-87
2023/03/19 16:47:12;;;;;;;27.70;15.10;;;;;;;14.79;58.02;100479.54;214053;1294;138290;-88
2023/03/19 16:52:17;;;;;;;29.20;15.20;;;;;;;14.60;59.30;100482.23;213441;1292;138926;-88
2023/03/19 16:57:18;;;;;;;32.60;16.30;;;;;;;14.39;59.85;100484.77;213907;1294;140372;-91
2023/03/19 17:02:19;;;;;;;32.90;16.50;;;;;;;14.14;60.35;100485.06;213424;1289;138738;-87
2023/03/19 17:07:19;;;;;;;35.80;17.60;;;;;;;13.86;60.98;100488.67;214069;1292;138998;-88
2023/03/19 17:12:19;;;;;;;33.10;18.30;;;;;;;13.60;62.14;100488.23;213645;1289;138757;-88
2023/03/19 17:17:20;;;;;;;35.70;18.60;;;;;;;13.36;63.15;100494.77;214268;1292;138891;-88
2023/03/19 17:22:22;;;;;;;30.00;16.30;;;;;;;13.08;63.81;100498.44;213552;1291;139196;-88
2023/03/19 17:27:22;;;;;;;25.80;15.20;;;;;;;12.83;64.34;100499.60;214157;1292;138408;-90
2023/03/19 17:32:23;;;;;;;35.80;16.90;;;;;;;12.63;65.11;100504.66;213485;1288;138328;-89
2023/03/19 17:37:27;;;;;;;37.10;19.30;;;;;;;12.35;66.04;100504.61;214255;1293;138576;-90
2023/03/19 17:42:29;;;;;;;40.80;20.40;;;;;;;12.05;66.78;100508.86;213500;1291;139113;-91
2023/03/19 17:47:30;;;;;;;42.10;22.80;;;;;;;11.71;67.54;100509.95;213859;1289;139216;-90
2023/03/19 17:52:30;;;;;;;42.80;24.20;;;;;;;11.45;68.50;100510.18;213888;1291;138631;-89
2023/03/19 17:57:31;;;;;;;41.80;23.40;;;;;;;11.28;69.59;100511.83;214351;1294;138398;-90
2023/03/19 18:02:32;;;;;;;44.90;25.10;;;;;;;11.06;69.97;100507.13;213731;1288;138419;-90
2023/03/19 18:07:32;;;;;;;45.90;26.90;;;;;;;10.86;70.84;100502.89;213998;1289;138477;-91
2023/03/19 18:12:33;;;;;;;45.70;25.70;;;;;;;10.63;71.69;100500.50;213372;1289;138054;-91
2023/03/19 18:17:34;;;;;;;49.20;29.50;;;;;;;10.43;72.20;100495.00;213875;1294;138159;-91
2023/03/19 18:22:35;;;;;;;46.50;27.80;;;;;;;10.23;72.97;100495.92;213418;1292;138420;-91
2023/03/19 18:27:36;;;;;;;52.80;28.40;;;;;;;10.03;73.65;100498.77;214170;1291;138812;-91
2023/03/19 18:32:39;;;;;;;58.30;30.40;;;;;;;9.84;74.57;100500.83;213209;1289;139460;-91
2023/03/19 18:37:40;;;;;;;53.10;29.70;;;;;;;9.65;75.33;100498.63;213652;1292;138736;-90
2023/03/19 18:42:40;;;;;;;54.10;29.50;;;;;;;9.50;75.73;100500.90;213222;1289;139090;-91
2023/03/19 18:47:42;;;;;;;58.20;30.60;;;;;;;9.37;76.28;100500.69;213594;1292;140509;-91
2023/03/19 18:52:45;;;;;;;59.90;31.60;;;;;;;9.21;76.86;100496.33;213349;1291;138961;-90
2023/03/19 18:57:59;;;;;;;65.40;35.50;;;;;;;9.04;77.74;100499.09;213734;1293;139442;-91
2023/03/19 19:03:01;;;;;;;72.80;39.70;;;;;;;8.90;78.19;100503.29;213504;1292;139224;-91
2023/03/19 19:08:02;;;;;;;71.40;38.70;;;;;;;8.75;78.88;100504.41;213635;1293;139438;-91
2023/03/19 19:13:05;;;;;;;82.70;43.70;;;;;;;8.59;79.28;100511.39;213257;1290;139558;-91
2023/03/19 19:18:18;;;;;;;82.70;42.00;;;;;;;8.45;79.92;100508.90;213919;1289;112025;-91
2023/03/19 19:23:21;;;;;;;82.30;42.90;;;;;;;8.28;80.60;100505.48;213506;1289;139578;-90
2023/03/19 19:28:36;;;;;;;94.30;46.00;;;;;;;8.15;80.96;100504.73;214142;1290;138908;-91
2023/03/19 19:33:37;;;;;;;92.70;45.70;;;;;;;8.02;81.54;100507.77;213625;1292;139609;-91
2023/03/19 19:38:37;;;;;;;89.80;44.40;;;;;;;7.89;82.09;100516.95;214379;1289;139120;-91
2023/03/19 19:43:38;;;;;;;115.90;52.00;;;;;;;7.74;82.35;100518.88;214035;1291;141086;-91
2023/03/19 19:48:40;;;;;;;97.00;47.80;;;;;;;7.60;83.07;100523.31;214703;1294;97928;-91
2023/03/19 19:53:40;;;;;;;103.90;52.30;;;;;;;7.49;83.68;100525.08;213734;1289;139384;-90
2023/03/19 19:58:43;;;;;;;104.60;51.30;;;;;;;7.39;83.80;100523.40;214073;1288;140466;-88
2023/03/19 20:03:45;;;;;;;107.20;52.10;;;;;;;7.29;84.35;100524.73;214106;1292;138955;-91
2023/03/19 20:08:49;;;;;;;131.40;59.50;;;;;;;7.17;84.34;100528.71;213450;1292;139553;-91
2023/03/19 20:13:54;;;;;;;131.10;57.20;;;;;;;7.02;85.01;100535.83;214051;1294;138913;-90
2023/03/19 20:18:55;;;;;;;116.00;54.20;;;;;;;6.91;85.30;100545.27;213822;1289;139503;-90
2023/03/19 20:23:57;;;;;;;119.30;60.70;;;;;;;6.79;85.84;100548.86;213707;1294;138949;-89
2023/03/19 20:28:58;;;;;;;114.80;55.50;;;;;;;6.69;86.31;100545.98;213646;1293;139435;-89
2023/03/19 20:33:59;;;;;;;106.00;53.20;;;;;;;6.59;86.78;100546.02;214079;1294;139008;-89
2023/03/19 20:39:00;;;;;;;100.10;50.40;;;;;;;6.52;87.09;100545.35;213695;1289;139560;-90
2023/03/19 20:44:04;;;;;;;101.20;54.40;;;;;;;6.41;87.29;100544.14;214210;1289;141206;-91
2023/03/19 20:49:12;;;;;;;109.90;55.00;;;;;;;6.33;88.08;100543.60;213681;1290;139612;-91
2023/03/19 20:54:12;;;;;;;97.70;53.00;;;;;;;6.27;88.36;100548.52;214623;1292;97990;-91
2023/03/19 20:59:13;;;;;;;108.90;57.70;;;;;;;6.19;88.43;100543.98;213814;1288;140121;-90
2023/03/19 21:04:18;;;;;;;104.40;55.70;;;;;;;6.11;89.04;100549.11;214254;1292;139214;-91
2023/03/19 21:09:20;;;;;;;110.60;58.20;;;;;;;6.03;89.14;100543.32;213510;1291;140444;-88
2023/03/19 21:14:22;;;;;;;126.10;64.80;;;;;;;5.98;90.14;100545.74;214039;1290;228943;-90
2023/03/19 21:19:22;;;;;;;126.80;66.00;;;;;;;5.95;90.42;100544.80;213412;1294;139583;-91
2023/03/19 21:24:24;;;;;;;133.00;69.90;;;;;;;5.91;90.52;100545.44;214083;1294;99384;-91
2023/03/19 21:29:31;;;;;;;135.90;70.70;;;;;;;5.86;90.72;100543.86;213485;1291;138826;-91
2023/03/19 21:34:32;;;;;;;117.50;63.40;;;;;;;5.83;91.09;100543.94;214061;1294;139604;-91
2023/03/19 21:39:33;;;;;;;130.50;68.90;;;;;;;5.79;91.18;100542.31;213449;1294;139747;-91
2023/03/19 21:44:34;;;;;;;133.80;71.30;;;;;;;5.79;91.29;100540.10;213834;1290;138833;-91
2023/03/19 21:49:35;;;;;;;126.60;68.00;;;;;;;5.78;91.57;100541.10;213435;1289;138976;-91
2023/03/19 21:54:35;;;;;;;126.90;68.70;;;;;;;5.75;91.58;100544.98;214327;1289;99316;-90
2023/03/19 21:59:37;;;;;;;127.20;70.30;;;;;;;5.72;92.00;100535.76;213422;1294;139375;-90
2023/03/19 22:04:38;;;;;;;133.50;70.30;;;;;;;5.68;92.39;100536.96;214359;1288;138829;-89
2023/03/19 22:09:38;;;;;;;140.10;73.30;;;;;;;5.65;92.38;100536.94;213776;1294;139638;-92
2023/03/19 22:14:40;;;;;;;146.50;77.50;;;;;;;5.62;92.51;100530.66;214577;1288;139075;-92
2023/03/19 22:19:40;;;;;;;135.70;72.40;;;;;;;5.58;92.60;100530.46;214695;1292;140776;-90
2023/03/19 22:24:41;;;;;;;137.10;73.30;;;;;;;5.51;92.80;100526.40;214049;1294;97931;-90
2023/03/19 22:29:43;;;;;;;137.00;73.00;;;;;;;5.45;92.69;100527.94;213617;1289;138797;-90
2023/03/19 22:34:44;;;;;;;126.10;68.60;;;;;;;5.39;93.10;100528.64;214015;1294;139046;-90
2023/03/19 22:39:44;;;;;;;117.10;63.60;;;;;;;5.33;93.32;100526.44;213318;1291;140046;-91